sensor_id;sensor_type;location;lat;lon;timestamp;P1;P4;P2;P0;N10;N4;N25;N1;N05;TS
72225;SPS30;60130;52.250;5.048;2023-06-10T00:00:00;4.96;;4.87;;;;;;;
72225;SPS30;60130;52.250;5.048;2023-06-10T00:05:00;4.83;;4.74;;;;;;;
72225;SPS30;60130;52.250;5.048;2023-06-10T00:10:00;4.45;;4.38;;;;;;;
72225;SPS30;60130;52.250;5.048;2023-06-10T00:15:00;5.25;;5.18;;;;;;;
72225;SPS30;60130;52.250;5.048;2023-06-10T00:20:00;4.73;;4.68;;;;;;;
72225;SPS30;60130;52.250;5.048;2023-06-10T00:25:00;3.95;;3.89;;;;;;;
72225;SPS30;60130;52.250;5.048;2023-06-10T00:30:00;4.34;;4.31;;;;;;;
72225;SPS30;60130;52.250;5.048;2023-06-10T00:35:00;4.28;;4.18;;;;;;;
72225;SPS30;60130;52.250;5.048;2023-06-10T00:40:00;4.80;;4.73;;;;;;;
72225;SPS30;60130;52.250;5.048;2023-06-10T00:45:00;4.52;;4.46;;;;;;;
72225;SPS30;60130;52.250;5.048;2023-06-10T00:50:00;4.46;;4.46;;;;;;;
72225;SPS30;60130;52.250;5.048;2023-06-10T00:55:00;4.56;;4.50;;;;;;;
72225;SPS30;60130;52.250;5.048;2023-06-10T01:00:00;4.44;;4.41;;;;;;;
72225;SPS30;60130;52.250;5.048;2023-06-10T01:05:00;4.10;;4.05;;;;;;;
72225;SPS30;60130;52.250;5.048;2023-06-10T01:10:01;3.81;;3.75;;;;;;;
72225;SPS30;60130;52.250;5.048;2023-06-10T01:15:00;4.58;;4.54;;;;;;;
72225;SPS30;60130;52.250;5.048;2023-06-10T01:20:00;3.94;;3.87;;;;;;;
72225;SPS30;60130;52.250;5.048;2023-06-10T01:25:00;5.01;;4.93;;;;;;;
72225;SPS30;60130;52.250;5.048;2023-06-10T01:30:02;4.65;;4.60;;;;;;;
72225;SPS30;60130;52.250;5.048;2023-06-10T01:35:00;4.33;;4.20;;;;;;;
72225;SPS30;60130;52.250;5.048;2023-06-10T01:40:00;4.26;;4.16;;;;;;;
72225;SPS30;60130;52.250;5.048;2023-06-10T01:45:00;4.76;;4.76;;;;;;;
72225;SPS30;60130;52.250;5.048;2023-06-10T01:50:00;5.49;;5.39;;;;;;;
72225;SPS30;60130;52.250;5.048;2023-06-10T01:55:00;4.75;;4.75;;;;;;;
72225;SPS30;60130;52.250;5.048;2023-06-10T02:00:00;4.91;;4.90;;;;;;;
72225;SPS30;60130;52.250;5.048;2023-06-10T02:05:00;4.42;;4.38;;;;;;;
72225;SPS30;60130;52.250;5.048;2023-06-10T02:10:00;4.49;;4.44;;;;;;;
72225;SPS30;60130;52.250;5.048;2023-06-10T02:15:00;5.59;;5.54;;;;;;;
72225;SPS30;60130;52.250;5.048;2023-06-10T02:20:00;4.85;;4.78;;;;;;;
72225;SPS30;60130;52.250;5.048;2023-06-10T02:25:00;5.46;;5.35;;;;;;;
72225;SPS30;60130;52.250;5.048;2023-06-10T02:30:00;4.80;;4.76;;;;;;;
72225;SPS30;60130;52.250;5.048;2023-06-10T02:35:00;5.30;;5.23;;;;;;;
72225;SPS30;60130;52.250;5.048;2023-06-10T02:40:00;4.94;;4.86;;;;;;;
72225;SPS30;60130;52.250;5.048;2023-06-10T02:45:00;4.72;;4.70;;;;;;;
72225;SPS30;60130;52.250;5.048;2023-06-10T02:50:00;5.31;;5.28;;;;;;;
72225;SPS30;60130;52.250;5.048;2023-06-10T02:55:00;6.10;;5.92;;;;;;;
72225;SPS30;60130;52.250;5.048;2023-06-10T03:00:00;5.12;;5.07;;;;;;;
72225;SPS30;60130;52.250;5.048;2023-06-10T03:05:00;5.48;;5.36;;;;;;;
72225;SPS30;60130;52.250;5.048;2023-06-10T03:10:00;5.51;;5.51;;;;;;;
72225;SPS30;60130;52.250;5.048;2023-06-10T03:15:00;5.75;;5.66;;;;;;;
72225;SPS30;60130;52.250;5.048;2023-06-10T03:20:00;5.60;;5.48;;;;;;;
72225;SPS30;60130;52.250;5.048;2023-06-10T03:25:00;4.80;;4.76;;;;;;;
72225;SPS30;60130;52.250;5.048;2023-06-10T03:30:00;5.41;;5.38;;;;;;;
72225;SPS30;60130;52.250;5.048;2023-06-10T03:35:00;5.95;;5.86;;;;;;;
72225;SPS30;60130;52.250;5.048;2023-06-10T03:40:00;4.96;;4.89;;;;;;;
72225;SPS30;60130;52.250;5.048;2023-06-10T03:45:00;4.96;;4.92;;;;;;;
72225;SPS30;60130;52.250;5.048;2023-06-10T03:50:00;4.96;;4.95;;;;;;;
72225;SPS30;60130;52.250;5.048;2023-06-10T03:55:00;5.02;;4.99;;;;;;;
72225;SPS30;60130;52.250;5.048;2023-06-10T04:00:00;5.46;;5.43;;;;;;;
72225;SPS30;60130;52.250;5.048;2023-06-10T04:05:00;5.32;;5.23;;;;;;;
72225;SPS30;60130;52.250;5.048;2023-06-10T04:10:00;5.25;;5.25;;;;;;;
72225;SPS30;60130;52.250;5.048;2023-06-10T04:15:00;5.95;;5.90;;;;;;;
72225;SPS30;60130;52.250;5.048;2023-06-10T04:20:00;5.76;;5.74;;;;;;;
72225;SPS30;60130;52.250;5.048;2023-06-10T04:25:00;5.65;;5.61;;;;;;;
72225;SPS30;60130;52.250;5.048;2023-06-10T04:30:00;5.75;;5.73;;;;;;;
72225;SPS30;60130;52.250;5.048;2023-06-10T04:35:00;6.01;;5.99;;;;;;;
72225;SPS30;60130;52.250;5.048;2023-06-10T04:40:00;5.51;;5.41;;;;;;;
72225;SPS30;60130;52.250;5.048;2023-06-10T04:45:00;5.74;;5.67;;;;;;;
72225;SPS30;60130;52.250;5.048;2023-06-10T04:50:00;5.78;;5.76;;;;;;;
72225;SPS30;60130;52.250;5.048;2023-06-10T04:55:00;6.08;;6.08;;;;;;;
72225;SPS30;60130;52.250;5.048;2023-06-10T05:00:00;5.35;;5.31;;;;;;;
72225;SPS30;60130;52.250;5.048;2023-06-10T05:05:00;5.86;;5.78;;;;;;;
72225;SPS30;60130;52.250;5.048;2023-06-10T05:10:00;5.26;;5.24;;;;;;;
72225;SPS30;60130;52.250;5.048;2023-06-10T05:15:00;6.50;;6.44;;;;;;;
72225;SPS30;60130;52.250;5.048;2023-06-10T05:20:00;5.50;;5.50;;;;;;;
72225;SPS30;60130;52.250;5.048;2023-06-10T05:25:00;5.59;;5.56;;;;;;;
72225;SPS30;60130;52.250;5.048;2023-06-10T05:30:00;5.88;;5.88;;;;;;;
72225;SPS30;60130;52.250;5.048;2023-06-10T05:35:00;6.26;;6.22;;;;;;;
72225;SPS30;60130;52.250;5.048;2023-06-10T05:40:00;5.65;;5.65;;;;;;;
72225;SPS30;60130;52.250;5.048;2023-06-10T05:45:00;6.50;;6.38;;;;;;;
72225;SPS30;60130;52.250;5.048;2023-06-10T05:50:00;5.36;;5.27;;;;;;;
72225;SPS30;60130;52.250;5.048;2023-06-10T05:55:00;5.73;;5.69;;;;;;;
72225;SPS30;60130;52.250;5.048;2023-06-10T06:00:00;5.46;;5.44;;;;;;;
72225;SPS30;60130;52.250;5.048;2023-06-10T06:05:00;5.24;;5.24;;;;;;;
72225;SPS30;60130;52.250;5.048;2023-06-10T06:10:00;5.35;;5.35;;;;;;;
72225;SPS30;60130;52.250;5.048;2023-06-10T06:15:00;5.55;;5.52;;;;;;;
72225;SPS30;60130;52.250;5.048;2023-06-10T06:20:00;5.33;;5.30;;;;;;;
72225;SPS30;60130;52.250;5.048;2023-06-10T06:25:00;5.63;;5.63;;;;;;;
72225;SPS30;60130;52.250;5.048;2023-06-10T06:30:00;4.86;;4.86;;;;;;;
72225;SPS30;60130;52.250;5.048;2023-06-10T06:35:00;5.49;;5.49;;;;;;;
72225;SPS30;60130;52.250;5.048;2023-06-10T06:40:00;5.49;;5.47;;;;;;;
72225;SPS30;60130;52.250;5.048;2023-06-10T06:45:00;5.41;;5.41;;;;;;;
72225;SPS30;60130;52.250;5.048;2023-06-10T06:50:00;5.40;;5.40;;;;;;;
72225;SPS30;60130;52.250;5.048;2023-06-10T06:55:00;5.04;;5.04;;;;;;;
72225;SPS30;60130;52.250;5.048;2023-06-10T07:00:00;5.67;;5.67;;;;;;;
72225;SPS30;60130;52.250;5.048;2023-06-10T07:05:00;5.56;;5.56;;;;;;;
72225;SPS30;60130;52.250;5.048;2023-06-10T07:10:00;5.43;;5.42;;;;;;;
72225;SPS30;60130;52.250;5.048;2023-06-10T07:15:00;5.28;;5.27;;;;;;;
72225;SPS30;60130;52.250;5.048;2023-06-10T07:20:00;5.54;;5.54;;;;;;;
72225;SPS30;60130;52.250;5.048;2023-06-10T07:25:00;5.18;;5.18;;;;;;;
72225;SPS30;60130;52.250;5.048;2023-06-10T07:30:00;4.74;;4.73;;;;;;;
72225;SPS30;60130;52.250;5.048;2023-06-10T07:35:00;5.36;;5.36;;;;;;;
72225;SPS30;60130;52.250;5.048;2023-06-10T07:40:00;5.35;;5.35;;;;;;;
72225;SPS30;60130;52.250;5.048;2023-06-10T07:45:00;5.48;;5.48;;;;;;;
72225;SPS30;60130;52.250;5.048;2023-06-10T07:50:00;5.25;;5.25;;;;;;;
72225;SPS30;60130;52.250;5.048;2023-06-10T07:55:00;5.19;;5.19;;;;;;;
72225;SPS30;60130;52.250;5.048;2023-06-10T08:00:00;5.47;;5.47;;;;;;;
72225;SPS30;60130;52.250;5.048;2023-06-10T08:05:00;5.00;;5.00;;;;;;;
72225;SPS30;60130;52.250;5.048;2023-06-10T08:10:00;5.14;;5.14;;;;;;;
72225;SPS30;60130;52.250;5.048;2023-06-10T08:15:00;4.81;;4.81;;;;;;;
72225;SPS30;60130;52.250;5.048;2023-06-10T08:20:00;4.86;;4.86;;;;;;;
72225;SPS30;60130;52.250;5.048;2023-06-10T08:25:00;5.05;;5.05;;;;;;;
72225;SPS30;60130;52.250;5.048;2023-06-10T08:30:00;5.01;;5.01;;;;;;;
72225;SPS30;60130;52.250;5.048;2023-06-10T08:35:00;5.06;;5.06;;;;;;;
72225;SPS30;60130;52.250;5.048;2023-06-10T08:40:00;5.32;;5.32;;;;;;;
72225;SPS30;60130;52.250;5.048;2023-06-10T08:45:00;5.56;;5.56;;;;;;;
72225;SPS30;60130;52.250;5.048;2023-06-10T08:50:01;5.48;;5.46;;;;;;;
72225;SPS30;60130;52.250;5.048;2023-06-10T08:55:02;5.21;;5.18;;;;;;;
72225;SPS30;60130;52.250;5.048;2023-06-10T09:00:00;5.41;;5.33;;;;;;;
72225;SPS30;60130;52.250;5.048;2023-06-10T09:05:00;5.40;;5.40;;;;;;;
72225;SPS30;60130;52.250;5.048;2023-06-10T09:10:00;4.83;;4.83;;;;;;;
72225;SPS30;60130;52.250;5.048;2023-06-10T09:15:00;5.58;;5.58;;;;;;;
72225;SPS30;60130;52.250;5.048;2023-06-10T09:20:00;4.92;;4.92;;;;;;;
72225;SPS30;60130;52.250;5.048;2023-06-10T09:25:01;5.80;;5.80;;;;;;;
72225;SPS30;60130;52.250;5.048;2023-06-10T09:30:00;5.69;;5.69;;;;;;;
72225;SPS30;60130;52.250;5.048;2023-06-10T09:35:00;4.95;;4.95;;;;;;;
72225;SPS30;60130;52.250;5.048;2023-06-10T09:40:00;5.58;;5.58;;;;;;;
72225;SPS30;60130;52.250;5.048;2023-06-10T09:45:00;5.19;;5.19;;;;;;;
72225;SPS30;60130;52.250;5.048;2023-06-10T09:50:00;5.83;;5.83;;;;;;;
72225;SPS30;60130;52.250;5.048;2023-06-10T09:55:00;5.37;;5.31;;;;;;;
72225;SPS30;60130;52.250;5.048;2023-06-10T10:00:02;5.54;;5.54;;;;;;;
72225;SPS30;60130;52.250;5.048;2023-06-10T10:05:02;5.17;;5.17;;;;;;;
72225;SPS30;60130;52.250;5.048;2023-06-10T10:10:00;4.68;;4.68;;;;;;;
72225;SPS30;60130;52.250;5.048;2023-06-10T10:15:00;5.16;;5.16;;;;;;;
72225;SPS30;60130;52.250;5.048;2023-06-10T10:20:01;4.89;;4.89;;;;;;;
72225;SPS30;60130;52.250;5.048;2023-06-10T10:25:01;5.06;;5.06;;;;;;;
72225;SPS30;60130;52.250;5.048;2023-06-10T10:30:00;5.58;;5.58;;;;;;;
72225;SPS30;60130;52.250;5.048;2023-06-10T10:35:03;4.96;;4.96;;;;;;;
72225;SPS30;60130;52.250;5.048;2023-06-10T10:40:00;4.93;;4.93;;;;;;;
72225;SPS30;60130;52.250;5.048;2023-06-10T10:45:00;4.91;;4.91;;;;;;;
72225;SPS30;60130;52.250;5.048;2023-06-10T10:50:00;5.18;;5.18;;;;;;;
72225;SPS30;60130;52.250;5.048;2023-06-10T10:55:00;5.34;;5.34;;;;;;;
72225;SPS30;60130;52.250;5.048;2023-06-10T11:00:00;4.36;;4.36;;;;;;;
72225;SPS30;60130;52.250;5.048;2023-06-10T11:05:00;4.60;;4.60;;;;;;;
72225;SPS30;60130;52.250;5.048;2023-06-10T11:10:00;4.71;;4.71;;;;;;;
72225;SPS30;60130;52.250;5.048;2023-06-10T11:15:00;4.81;;4.81;;;;;;;
72225;SPS30;60130;52.250;5.048;2023-06-10T11:20:00;5.15;;5.15;;;;;;;
72225;SPS30;60130;52.250;5.048;2023-06-10T11:25:00;4.55;;4.55;;;;;;;
72225;SPS30;60130;52.250;5.048;2023-06-10T11:35:00;5.12;;5.09;;;;;;;
72225;SPS30;60130;52.250;5.048;2023-06-10T11:40:00;4.41;;4.41;;;;;;;
72225;SPS30;60130;52.250;5.048;2023-06-10T11:45:00;4.65;;4.65;;;;;;;
72225;SPS30;60130;52.250;5.048;2023-06-10T11:50:00;4.88;;4.88;;;;;;;
72225;SPS30;60130;52.250;5.048;2023-06-10T11:55:00;4.42;;4.42;;;;;;;
72225;SPS30;60130;52.250;5.048;2023-06-10T12:00:03;4.98;;4.98;;;;;;;
72225;SPS30;60130;52.250;5.048;2023-06-10T12:05:09;4.56;;4.56;;;;;;;
72225;SPS30;60130;52.250;5.048;2023-06-10T12:10:00;4.92;;4.92;;;;;;;
72225;SPS30;60130;52.250;5.048;2023-06-10T12:15:00;4.72;;4.72;;;;;;;
72225;SPS30;60130;52.250;5.048;2023-06-10T12:20:00;4.88;;4.88;;;;;;;
72225;SPS30;60130;52.250;5.048;2023-06-10T12:25:00;4.89;;4.89;;;;;;;
72225;SPS30;60130;52.250;5.048;2023-06-10T12:30:00;5.13;;5.13;;;;;;;
72225;SPS30;60130;52.250;5.048;2023-06-10T12:35:02;5.57;;5.57;;;;;;;
72225;SPS30;60130;52.250;5.048;2023-06-10T12:40:00;5.35;;5.35;;;;;;;
72225;SPS30;60130;52.250;5.048;2023-06-10T12:45:00;4.97;;4.97;;;;;;;
72225;SPS30;60130;52.250;5.048;2023-06-10T12:50:00;5.14;;5.14;;;;;;;
72225;SPS30;60130;52.250;5.048;2023-06-10T12:55:00;4.51;;4.51;;;;;;;
72225;SPS30;60130;52.250;5.048;2023-06-10T13:00:00;5.07;;5.07;;;;;;;
72225;SPS30;60130;52.250;5.048;2023-06-10T13:05:00;5.19;;5.19;;;;;;;
72225;SPS30;60130;52.250;5.048;2023-06-10T13:10:00;5.22;;5.22;;;;;;;
72225;SPS30;60130;52.250;5.048;2023-06-10T13:15:00;5.15;;5.15;;;;;;;
72225;SPS30;60130;52.250;5.048;2023-06-10T13:20:00;5.41;;5.41;;;;;;;
72225;SPS30;60130;52.250;5.048;2023-06-10T13:25:00;5.26;;5.26;;;;;;;
72225;SPS30;60130;52.250;5.048;2023-06-10T13:30:00;5.19;;5.19;;;;;;;
72225;SPS30;60130;52.250;5.048;2023-06-10T13:35:00;5.79;;5.79;;;;;;;
72225;SPS30;60130;52.250;5.048;2023-06-10T13:40:00;5.71;;5.71;;;;;;;
72225;SPS30;60130;52.250;5.048;2023-06-10T13:45:00;5.23;;5.23;;;;;;;
72225;SPS30;60130;52.250;5.048;2023-06-10T13:50:00;4.89;;4.89;;;;;;;
72225;SPS30;60130;52.250;5.048;2023-06-10T13:55:00;4.72;;4.72;;;;;;;
72225;SPS30;60130;52.250;5.048;2023-06-10T14:00:00;4.78;;4.78;;;;;;;
72225;SPS30;60130;52.250;5.048;2023-06-10T14:05:00;3.93;;3.93;;;;;;;
72225;SPS30;60130;52.250;5.048;2023-06-10T14:10:00;4.50;;4.50;;;;;;;
72225;SPS30;60130;52.250;5.048;2023-06-10T14:15:00;4.90;;4.90;;;;;;;
72225;SPS30;60130;52.250;5.048;2023-06-10T14:20:00;4.61;;4.61;;;;;;;
72225;SPS30;60130;52.250;5.048;2023-06-10T14:25:00;5.31;;5.31;;;;;;;
72225;SPS30;60130;52.250;5.048;2023-06-10T14:30:00;4.37;;4.37;;;;;;;
72225;SPS30;60130;52.250;5.048;2023-06-10T14:35:00;4.40;;4.40;;;;;;;
72225;SPS30;60130;52.250;5.048;2023-06-10T14:40:00;4.16;;4.16;;;;;;;
72225;SPS30;60130;52.250;5.048;2023-06-10T14:45:00;4.06;;4.06;;;;;;;
72225;SPS30;60130;52.250;5.048;2023-06-10T14:50:00;4.43;;4.43;;;;;;;
72225;SPS30;60130;52.250;5.048;2023-06-10T14:55:00;3.92;;3.91;;;;;;;
72225;SPS30;60130;52.250;5.048;2023-06-10T15:00:00;3.97;;3.97;;;;;;;
72225;SPS30;60130;52.250;5.048;2023-06-10T15:05:00;4.07;;4.07;;;;;;;
72225;SPS30;60130;52.250;5.048;2023-06-10T15:10:00;4.61;;4.59;;;;;;;
72225;SPS30;60130;52.250;5.048;2023-06-10T15:15:00;3.87;;3.87;;;;;;;
72225;SPS30;60130;52.250;5.048;2023-06-10T15:20:00;3.69;;3.69;;;;;;;
72225;SPS30;60130;52.250;5.048;2023-06-10T15:25:00;4.48;;4.48;;;;;;;
72225;SPS30;60130;52.250;5.048;2023-06-10T15:30:00;3.69;;3.69;;;;;;;
72225;SPS30;60130;52.250;5.048;2023-06-10T15:35:00;3.99;;3.99;;;;;;;
72225;SPS30;60130;52.250;5.048;2023-06-10T15:40:00;3.46;;3.46;;;;;;;
72225;SPS30;60130;52.250;5.048;2023-06-10T15:45:00;3.21;;3.21;;;;;;;
72225;SPS30;60130;52.250;5.048;2023-06-10T15:50:00;3.40;;3.40;;;;;;;
72225;SPS30;60130;52.250;5.048;2023-06-10T15:55:00;4.41;;4.41;;;;;;;
72225;SPS30;60130;52.250;5.048;2023-06-10T16:00:00;4.45;;4.45;;;;;;;
72225;SPS30;60130;52.250;5.048;2023-06-10T16:05:00;3.55;;3.55;;;;;;;
72225;SPS30;60130;52.250;5.048;2023-06-10T16:10:00;13.16;;13.11;;;;;;;
72225;SPS30;60130;52.250;5.048;2023-06-10T16:15:00;4.76;;4.76;;;;;;;
72225;SPS30;60130;52.250;5.048;2023-06-10T16:20:00;4.19;;4.19;;;;;;;
72225;SPS30;60130;52.250;5.048;2023-06-10T16:25:00;4.89;;4.89;;;;;;;
72225;SPS30;60130;52.250;5.048;2023-06-10T16:30:00;4.80;;4.80;;;;;;;
72225;SPS30;60130;52.250;5.048;2023-06-10T16:35:00;3.81;;3.81;;;;;;;
72225;SPS30;60130;52.250;5.048;2023-06-10T16:40:00;3.58;;3.58;;;;;;;
72225;SPS30;60130;52.250;5.048;2023-06-10T16:45:00;3.38;;3.38;;;;;;;
72225;SPS30;60130;52.250;5.048;2023-06-10T16:50:00;3.43;;3.43;;;;;;;
72225;SPS30;60130;52.250;5.048;2023-06-10T16:55:00;3.68;;3.68;;;;;;;
72225;SPS30;60130;52.250;5.048;2023-06-10T17:00:00;3.85;;3.85;;;;;;;
72225;SPS30;60130;52.250;5.048;2023-06-10T17:05:00;3.49;;3.49;;;;;;;
72225;SPS30;60130;52.250;5.048;2023-06-10T17:10:00;3.71;;3.71;;;;;;;
72225;SPS30;60130;52.250;5.048;2023-06-10T17:15:00;3.20;;3.20;;;;;;;
72225;SPS30;60130;52.250;5.048;2023-06-10T17:20:00;3.88;;3.88;;;;;;;
72225;SPS30;60130;52.250;5.048;2023-06-10T17:25:00;3.75;;3.75;;;;;;;
72225;SPS30;60130;52.250;5.048;2023-06-10T17:30:00;3.11;;3.11;;;;;;;
72225;SPS30;60130;52.250;5.048;2023-06-10T17:35:00;3.17;;3.17;;;;;;;
72225;SPS30;60130;52.250;5.048;2023-06-10T17:40:00;3.75;;3.75;;;;;;;
72225;SPS30;60130;52.250;5.048;2023-06-10T17:45:00;8.55;;6.97;;;;;;;
72225;SPS30;60130;52.250;5.048;2023-06-10T17:50:00;15.85;;14.93;;;;;;;
72225;SPS30;60130;52.250;5.048;2023-06-10T17:55:00;7.42;;6.35;;;;;;;
72225;SPS30;60130;52.250;5.048;2023-06-10T18:00:00;8.69;;7.00;;;;;;;
72225;SPS30;60130;52.250;5.048;2023-06-10T18:05:00;4.94;;4.24;;;;;;;
72225;SPS30;60130;52.250;5.048;2023-06-10T18:10:00;4.63;;4.12;;;;;;;
72225;SPS30;60130;52.250;5.048;2023-06-10T18:15:00;4.15;;4.01;;;;;;;
72225;SPS30;60130;52.250;5.048;2023-06-10T18:20:00;3.28;;3.27;;;;;;;
72225;SPS30;60130;52.250;5.048;2023-06-10T18:25:00;3.99;;3.82;;;;;;;
72225;SPS30;60130;52.250;5.048;2023-06-10T18:30:00;2.90;;2.90;;;;;;;
72225;SPS30;60130;52.250;5.048;2023-06-10T18:35:00;2.90;;2.90;;;;;;;
72225;SPS30;60130;52.250;5.048;2023-06-10T18:40:00;3.03;;3.01;;;;;;;
72225;SPS30;60130;52.250;5.048;2023-06-10T18:45:00;2.81;;2.76;;;;;;;
72225;SPS30;60130;52.250;5.048;2023-06-10T18:50:00;2.34;;2.31;;;;;;;
72225;SPS30;60130;52.250;5.048;2023-06-10T18:55:00;2.40;;2.40;;;;;;;
72225;SPS30;60130;52.250;5.048;2023-06-10T19:00:00;2.06;;2.06;;;;;;;
72225;SPS30;60130;52.250;5.048;2023-06-10T19:05:00;2.21;;2.21;;;;;;;
72225;SPS30;60130;52.250;5.048;2023-06-10T19:10:00;2.65;;2.65;;;;;;;
72225;SPS30;60130;52.250;5.048;2023-06-10T19:15:00;2.30;;2.28;;;;;;;
72225;SPS30;60130;52.250;5.048;2023-06-10T19:20:00;2.36;;2.36;;;;;;;
72225;SPS30;60130;52.250;5.048;2023-06-10T19:25:00;2.37;;2.37;;;;;;;
72225;SPS30;60130;52.250;5.048;2023-06-10T19:30:00;2.18;;2.18;;;;;;;
72225;SPS30;60130;52.250;5.048;2023-06-10T19:35:00;2.32;;2.32;;;;;;;
72225;SPS30;60130;52.250;5.048;2023-06-10T19:40:00;1.75;;1.74;;;;;;;
72225;SPS30;60130;52.250;5.048;2023-06-10T19:45:00;2.52;;2.52;;;;;;;
72225;SPS30;60130;52.250;5.048;2023-06-10T19:50:00;2.70;;2.70;;;;;;;
72225;SPS30;60130;52.250;5.048;2023-06-10T19:55:00;2.77;;2.77;;;;;;;
72225;SPS30;60130;52.250;5.048;2023-06-10T20:00:00;2.67;;2.80;;;;;;;
72225;SPS30;60130;52.250;5.048;2023-06-10T20:05:00;2.54;;2.25;;;;;;;
72225;SPS30;60130;52.250;5.048;2023-06-10T20:10:00;3.03;;3.05;;;;;;;
72225;SPS30;60130;52.250;5.048;2023-06-10T20:15:00;2.68;;2.68;;;;;;;
72225;SPS30;60130;52.250;5.048;2023-06-10T20:20:00;3.10;;3.08;;;;;;;
72225;SPS30;60130;52.250;5.048;2023-06-10T20:25:00;2.51;;2.64;;;;;;;
72225;SPS30;60130;52.250;5.048;2023-06-10T20:30:00;3.29;;3.27;;;;;;;
72225;SPS30;60130;52.250;5.048;2023-06-10T20:35:00;1.97;;2.02;;;;;;;
72225;SPS30;60130;52.250;5.048;2023-06-10T20:40:00;2.12;;2.33;;;;;;;
72225;SPS30;60130;52.250;5.048;2023-06-10T20:45:00;2.90;;2.31;;;;;;;
72225;SPS30;60130;52.250;5.048;2023-06-10T20:50:00;2.36;;2.32;;;;;;;
72225;SPS30;60130;52.250;5.048;2023-06-10T20:55:00;2.61;;2.59;;;;;;;
72225;SPS30;60130;52.250;5.048;2023-06-10T21:00:00;1.83;;2.17;;;;;;;
72225;SPS30;60130;52.250;5.048;2023-06-10T21:05:00;2.24;;2.05;;;;;;;
72225;SPS30;60130;52.250;5.048;2023-06-10T21:10:00;2.30;;2.42;;;;;;;
72225;SPS30;60130;52.250;5.048;2023-06-10T21:15:00;2.78;;2.77;;;;;;;
72225;SPS30;60130;52.250;5.048;2023-06-10T21:20:00;3.00;;2.95;;;;;;;
72225;SPS30;60130;52.250;5.048;2023-06-10T21:25:00;2.54;;2.49;;;;;;;
72225;SPS30;60130;52.250;5.048;2023-06-10T21:30:00;2.94;;2.93;;;;;;;
72225;SPS30;60130;52.250;5.048;2023-06-10T21:35:00;3.26;;3.26;;;;;;;
72225;SPS30;60130;52.250;5.048;2023-06-10T21:40:00;3.28;;3.26;;;;;;;
72225;SPS30;60130;52.250;5.048;2023-06-10T21:45:00;3.09;;3.07;;;;;;;
72225;SPS30;60130;52.250;5.048;2023-06-10T21:50:00;3.21;;3.20;;;;;;;
72225;SPS30;60130;52.250;5.048;2023-06-10T21:55:00;3.86;;3.85;;;;;;;
72225;SPS30;60130;52.250;5.048;2023-06-10T22:00:00;3.33;;3.32;;;;;;;
72225;SPS30;60130;52.250;5.048;2023-06-10T22:05:00;3.59;;3.57;;;;;;;
72225;SPS30;60130;52.250;5.048;2023-06-10T22:10:00;3.17;;3.17;;;;;;;
72225;SPS30;60130;52.250;5.048;2023-06-10T22:15:00;2.84;;2.84;;;;;;;
72225;SPS30;60130;52.250;5.048;2023-06-10T22:20:00;2.83;;2.83;;;;;;;
72225;SPS30;60130;52.250;5.048;2023-06-10T22:25:00;2.74;;2.74;;;;;;;
72225;SPS30;60130;52.250;5.048;2023-06-10T22:30:00;2.93;;2.92;;;;;;;
72225;SPS30;60130;52.250;5.048;2023-06-10T22:35:01;2.55;;2.55;;;;;;;
72225;SPS30;60130;52.250;5.048;2023-06-10T22:40:00;3.09;;3.06;;;;;;;
72225;SPS30;60130;52.250;5.048;2023-06-10T22:45:00;3.15;;3.10;;;;;;;
72225;SPS30;60130;52.250;5.048;2023-06-10T22:50:00;3.46;;3.46;;;;;;;
72225;SPS30;60130;52.250;5.048;2023-06-10T22:55:00;2.91;;2.91;;;;;;;
72225;SPS30;60130;52.250;5.048;2023-06-10T23:00:00;3.39;;3.36;;;;;;;
72225;SPS30;60130;52.250;5.048;2023-06-10T23:05:00;3.09;;3.08;;;;;;;
72225;SPS30;60130;52.250;5.048;2023-06-10T23:10:00;3.19;;3.18;;;;;;;
72225;SPS30;60130;52.250;5.048;2023-06-10T23:15:00;3.36;;3.36;;;;;;;
72225;SPS30;60130;52.250;5.048;2023-06-10T23:20:00;3.35;;3.32;;;;;;;
72225;SPS30;60130;52.250;5.048;2023-06-10T23:25:00;3.70;;3.68;;;;;;;
72225;SPS30;60130;52.250;5.048;2023-06-10T23:30:00;3.82;;3.80;;;;;;;
72225;SPS30;60130;52.250;5.048;2023-06-10T23:35:00;4.09;;4.04;;;;;;;
72225;SPS30;60130;52.250;5.048;2023-06-10T23:40:00;4.38;;4.38;;;;;;;
72225;SPS30;60130;52.250;5.048;2023-06-10T23:45:00;4.20;;4.18;;;;;;;
72225;SPS30;60130;52.250;5.048;2023-06-10T23:50:00;3.12;;3.09;;;;;;;
72225;SPS30;60130;52.250;5.048;2023-06-10T23:55:00;3.33;;3.33;;;;;;;
